createdAt,value
2019-03-19T01:13:32.032Z,16.90
2019-03-19T01:18:31.278Z,19.20
2019-03-19T01:21:32.408Z,16.90
2019-03-19T01:32:32.112Z,16.90
2019-03-19T01:33:32.129Z,15.70
2019-03-19T01:39:31.696Z,17.90
2019-03-19T01:42:32.612Z,16.10
2019-03-19T01:43:31.742Z,15.90
2019-03-19T01:44:32.041Z,14.30
2019-03-19T01:45:32.045Z,14.50
2019-03-19T01:47:31.551Z,14.80
2019-03-19T01:48:32.676Z,13.40
2019-03-19T01:51:31.904Z,19.40
2019-03-19T01:54:31.622Z,16.50
2019-03-19T01:55:31.625Z,15.50
2019-03-19T01:56:31.639Z,14.90
2019-03-19T01:57:31.643Z,16.80
2019-03-19T01:58:31.661Z,14.90
2019-03-19T01:59:31.669Z,15.20
2019-03-19T02:00:31.671Z,15.80
2019-03-19T02:01:31.680Z,15.20
2019-03-19T02:02:31.691Z,16.90
2019-03-19T02:03:31.710Z,17.40
2019-03-19T02:04:31.716Z,16.90
2019-03-19T02:05:31.722Z,14.00
2019-03-19T02:06:32.105Z,13.70
2019-03-19T02:09:32.317Z,20.30
2019-03-19T02:10:31.767Z,14.40
2019-03-19T02:11:31.788Z,17.80
2019-03-19T02:12:31.809Z,17.40
2019-03-19T02:13:31.844Z,13.70
2019-03-19T02:14:32.175Z,18.80
2019-03-19T02:15:32.119Z,19.90
2019-03-19T02:16:31.838Z,14.00
2019-03-19T02:17:31.841Z,16.80
2019-03-19T02:18:31.867Z,15.80
2019-03-19T02:19:31.871Z,15.70
2019-03-19T02:20:31.871Z,17.10
2019-03-19T02:21:31.897Z,16.40
2019-03-19T02:22:31.917Z,19.60
2019-03-19T02:23:31.908Z,14.40
2019-03-19T02:24:32.208Z,14.30
2019-03-19T02:25:31.914Z,13.10
2019-03-19T02:26:31.959Z,17.30
2019-03-19T02:27:31.932Z,17.90
2019-03-19T02:28:31.950Z,13.30
2019-03-19T02:29:31.965Z,20.00
2019-03-19T02:30:31.975Z,17.60
2019-03-19T02:31:32.218Z,18.20
2019-03-19T02:32:32.213Z,15.40
2019-03-19T02:33:32.623Z,16.40
2019-03-19T02:34:32.001Z,15.90
2019-03-19T02:35:32.032Z,15.40
2019-03-19T02:36:32.025Z,20.50
2019-03-19T02:37:32.338Z,21.70
2019-03-19T02:38:32.056Z,17.70
2019-03-19T02:39:32.062Z,20.40
2019-03-19T02:40:32.081Z,15.50
2019-03-19T02:41:32.248Z,21.00
2019-03-19T02:42:32.170Z,15.80
2019-03-19T02:43:32.317Z,12.20
2019-03-19T02:44:32.106Z,18.00
2019-03-19T02:45:32.122Z,17.50
2019-03-19T02:46:32.186Z,15.20
2019-03-19T02:47:32.138Z,16.30
2019-03-19T02:48:32.194Z,18.00
2019-03-19T02:49:32.155Z,15.50
2019-03-19T02:50:32.395Z,17.40
2019-03-19T02:51:32.367Z,15.20
2019-03-19T02:52:32.181Z,17.50
2019-03-19T02:53:32.501Z,13.90
2019-03-19T02:54:32.318Z,15.10
2019-03-19T02:55:32.225Z,17.90
2019-03-19T02:56:33.583Z,18.30
2019-03-19T02:57:32.243Z,12.00
2019-03-19T02:58:32.248Z,13.90
2019-03-19T02:59:32.251Z,15.90
2019-03-19T03:00:32.483Z,18.30
2019-03-19T03:01:32.264Z,15.80
2019-03-19T03:02:32.288Z,17.30
2019-03-19T03:03:32.293Z,20.60
2019-03-19T03:04:32.309Z,17.40
2019-03-19T03:05:32.304Z,16.90
2019-03-19T03:06:32.528Z,12.90
2019-03-19T03:07:32.330Z,15.60
2019-03-19T03:08:32.351Z,19.10
2019-03-19T03:09:32.343Z,17.10
2019-03-19T03:10:32.353Z,15.50
2019-03-19T03:11:32.415Z,17.20
2019-03-19T03:13:33.047Z,18.60
2019-03-19T03:14:32.442Z,11.50
2019-03-19T03:15:32.402Z,15.30
2019-03-19T03:16:32.442Z,15.40
2019-03-19T03:17:32.430Z,15.60
2019-03-19T03:18:32.434Z,17.90
2019-03-19T03:19:32.457Z,22.10
2019-03-19T03:20:32.451Z,18.00
2019-03-19T03:21:34.667Z,15.80
2019-03-19T03:22:32.471Z,17.10
2019-03-19T03:23:32.477Z,19.10
2019-03-19T03:24:32.485Z,18.30
2019-03-19T03:25:32.499Z,15.20
2019-03-19T03:26:46.482Z,17.80
2019-03-19T03:27:32.726Z,15.80
2019-03-19T03:28:32.521Z,16.20
2019-03-19T03:29:32.544Z,20.80
2019-03-19T03:30:32.542Z,19.60
2019-03-19T03:31:32.553Z,15.90
2019-03-19T03:32:32.569Z,18.30
2019-03-19T03:33:32.573Z,16.90
2019-03-19T03:34:32.612Z,18.70
2019-03-19T03:35:32.599Z,15.30
2019-03-19T03:36:32.599Z,18.00
2019-03-19T03:37:32.615Z,16.80
2019-03-19T03:38:32.621Z,17.50
2019-03-19T03:39:32.627Z,15.90
2019-03-19T03:40:32.648Z,15.90
2019-03-19T03:41:32.721Z,18.70
2019-03-19T03:42:32.664Z,18.50
2019-03-19T03:43:32.667Z,20.90
2019-03-19T03:44:32.678Z,16.30
2019-03-19T03:45:32.694Z,20.10
2019-03-19T03:46:32.701Z,16.10
2019-03-19T03:47:32.709Z,18.80
2019-03-19T03:48:32.717Z,18.60
2019-03-19T03:49:32.774Z,18.60
2019-03-19T03:50:32.770Z,18.80
2019-03-19T03:51:32.744Z,22.30
2019-03-19T03:52:33.081Z,19.20
2019-03-19T03:53:32.765Z,19.50
2019-03-19T03:54:32.778Z,16.10
2019-03-19T03:55:32.785Z,21.30
2019-03-19T03:56:32.818Z,21.60
2019-03-19T03:57:32.810Z,18.00
2019-03-19T03:58:32.813Z,15.20
2019-03-19T03:59:32.824Z,16.80
2019-03-19T04:00:32.833Z,18.90
2019-03-19T04:01:32.848Z,14.90
2019-03-19T04:03:32.869Z,20.30
2019-03-19T04:04:32.871Z,18.40
2019-03-19T04:05:32.888Z,16.80
2019-03-19T04:06:32.902Z,19.10
2019-03-19T04:07:32.905Z,21.20
2019-03-19T04:08:32.915Z,17.20
2019-03-19T04:09:32.927Z,16.00
2019-03-19T04:10:32.937Z,24.80
2019-03-19T04:11:32.939Z,18.00
2019-03-19T04:12:32.945Z,19.60
2019-03-19T04:13:32.963Z,20.30
2019-03-19T04:15:33.034Z,17.70
2019-03-19T04:16:33.002Z,16.20
2019-03-19T04:17:33.142Z,18.40
2019-03-19T04:18:33.212Z,17.20
2019-03-19T04:19:33.012Z,14.50
2019-03-19T04:20:33.225Z,16.10
2019-03-19T04:21:33.049Z,14.40
2019-03-19T04:22:33.038Z,21.90
2019-03-19T04:23:33.251Z,18.40
2019-03-19T04:24:33.075Z,20.50
2019-03-19T04:25:33.101Z,20.20
2019-03-19T04:26:33.095Z,16.40
2019-03-19T04:27:33.086Z,18.10
2019-03-19T04:28:33.113Z,17.60
2019-03-19T04:29:33.123Z,19.50
2019-03-19T04:30:33.137Z,17.40
2019-03-19T04:31:33.152Z,17.30
2019-03-19T04:32:33.446Z,14.60
2019-03-19T04:33:33.349Z,16.30
2019-03-19T04:34:33.157Z,17.90
2019-03-19T04:35:33.196Z,19.90
2019-03-19T04:36:33.187Z,16.90
2019-03-19T04:37:33.184Z,16.60
2019-03-19T04:38:33.418Z,20.90
2019-03-19T04:39:33.199Z,17.50
2019-03-19T04:40:33.407Z,19.70
2019-03-19T04:41:33.527Z,17.10
2019-03-19T04:42:33.246Z,16.50
2019-03-19T04:43:33.238Z,18.50
2019-03-19T04:44:33.264Z,18.40
2019-03-19T04:45:33.255Z,17.90
2019-03-19T04:46:33.268Z,21.30
2019-03-19T04:47:33.285Z,31.80
2019-03-19T04:48:33.305Z,19.40
2019-03-19T04:49:33.300Z,20.50
2019-03-19T04:50:33.428Z,22.10
2019-03-19T04:51:33.316Z,18.20
2019-03-19T04:52:33.526Z,19.00
2019-03-19T04:53:33.349Z,15.70
2019-03-19T04:54:33.337Z,18.30
2019-03-19T04:55:33.372Z,16.70
2019-03-19T04:56:33.571Z,14.30
2019-03-19T04:57:33.385Z,20.80
2019-03-19T04:58:33.576Z,19.80
2019-03-19T04:59:33.585Z,19.70
2019-03-19T05:00:33.403Z,15.30
2019-03-19T05:01:33.631Z,18.90
2019-03-19T05:02:33.423Z,17.60
2019-03-19T05:03:33.454Z,21.30
2019-03-19T05:04:33.438Z,17.10
2019-03-19T05:05:34.677Z,20.60
2019-03-19T05:06:33.772Z,16.70
2019-03-19T05:07:34.916Z,16.00
2019-03-19T05:08:33.471Z,16.80
2019-03-19T05:09:33.478Z,19.50
2019-03-19T05:10:33.488Z,18.60
2019-03-19T05:11:33.712Z,20.10
2019-03-19T05:12:33.507Z,13.50
2019-03-19T05:13:33.515Z,20.70
2019-03-19T05:14:33.531Z,13.70
2019-03-19T05:15:33.557Z,20.70
2019-03-19T05:16:33.763Z,19.50
2019-03-19T05:17:33.576Z,19.70
2019-03-19T05:18:33.610Z,15.40
2019-03-19T05:19:33.604Z,22.80
2019-03-19T05:20:33.583Z,17.20
2019-03-19T05:21:33.608Z,19.00
2019-03-19T05:22:33.603Z,21.10
2019-03-19T05:23:33.621Z,18.10
2019-03-19T05:24:33.618Z,15.80
2019-03-19T05:25:33.626Z,19.40
2019-03-19T05:26:33.868Z,16.60
2019-03-19T05:27:37.736Z,18.10
2019-03-19T05:28:33.664Z,20.50
2019-03-19T05:29:33.666Z,18.80
2019-03-19T05:30:33.674Z,16.90
2019-03-19T05:31:33.681Z,25.30
2019-03-19T05:32:33.696Z,14.80
2019-03-19T05:33:33.728Z,20.30
2019-03-19T05:34:33.741Z,18.00
2019-03-19T05:35:34.037Z,19.20
2019-03-19T05:36:33.740Z,19.10
2019-03-19T05:37:33.740Z,18.90
2019-03-19T05:38:33.750Z,15.80
2019-03-19T05:39:33.756Z,16.20
2019-03-19T05:40:33.767Z,17.50
2019-03-19T05:41:34.008Z,17.20
2019-03-19T05:42:33.785Z,19.00
2019-03-19T05:43:33.837Z,15.90
2019-03-19T05:44:33.802Z,17.70
2019-03-19T05:45:33.816Z,20.20
2019-03-19T05:46:33.822Z,23.30
2019-03-19T05:47:37.529Z,16.60
2019-03-19T05:48:33.839Z,17.10
2019-03-19T05:49:33.875Z,18.50
2019-03-19T05:50:33.906Z,19.90
2019-03-19T05:51:33.881Z,15.80
2019-03-19T05:52:33.883Z,18.40
2019-03-19T05:53:33.894Z,16.50
2019-03-19T05:54:33.896Z,21.40
2019-03-19T05:55:33.925Z,18.10
2019-03-19T05:56:33.942Z,20.60
2019-03-19T05:57:33.932Z,15.00
2019-03-19T05:58:34.033Z,20.90
2019-03-19T05:59:33.949Z,19.80
2019-03-19T06:00:34.058Z,16.90
2019-03-19T06:01:33.964Z,19.10
2019-03-19T06:02:33.968Z,14.50
2019-03-19T06:03:34.006Z,18.50
2019-03-19T06:04:33.987Z,13.50
2019-03-19T06:05:34.025Z,15.90
2019-03-19T06:06:34.110Z,18.50
2019-03-19T06:07:34.024Z,17.90
2019-03-19T06:08:34.025Z,21.60
2019-03-19T06:09:34.041Z,19.80
2019-03-19T06:10:34.045Z,22.60
2019-03-19T06:11:34.064Z,16.30
2019-03-19T06:12:34.061Z,14.60
2019-03-19T06:13:34.074Z,18.70
2019-03-19T06:14:34.092Z,22.60
2019-03-19T06:15:34.092Z,18.20
2019-03-19T06:16:34.100Z,18.40
2019-03-19T06:17:34.118Z,18.10
2019-03-19T06:18:35.290Z,18.30
2019-03-19T06:19:34.244Z,19.40
2019-03-19T06:20:34.135Z,18.00
2019-03-19T06:21:34.147Z,17.30
2019-03-19T06:22:34.270Z,24.30
2019-03-19T06:23:34.358Z,17.40
2019-03-19T06:24:34.198Z,19.20
2019-03-19T06:25:34.392Z,19.00
2019-03-19T06:26:34.244Z,20.60
2019-03-19T06:27:34.209Z,17.40
2019-03-19T06:28:35.635Z,21.50
2019-03-19T06:29:34.219Z,21.80
2019-03-19T06:30:34.619Z,18.20
2019-03-19T06:31:35.243Z,17.00
2019-03-19T06:32:34.248Z,21.40
2019-03-19T06:33:34.258Z,20.30
2019-03-19T06:34:34.267Z,18.20
2019-03-19T06:35:34.301Z,17.00
2019-03-19T06:36:34.291Z,19.80
2019-03-19T06:37:34.299Z,20.10
2019-03-19T06:38:34.307Z,22.00
2019-03-19T06:39:34.339Z,16.00
2019-03-19T06:40:34.323Z,20.10
2019-03-19T06:41:34.350Z,20.50
2019-03-19T06:42:34.371Z,21.50
2019-03-19T06:43:34.356Z,23.10
2019-03-19T06:44:34.361Z,28.50
2019-03-19T06:45:34.372Z,20.60
2019-03-19T06:46:34.394Z,21.30
2019-03-19T06:47:34.392Z,20.00
2019-03-19T06:48:34.403Z,18.00
2019-03-19T06:49:34.412Z,21.10
2019-03-19T06:50:44.812Z,16.60
2019-03-19T06:51:34.446Z,19.80
2019-03-19T06:53:34.460Z,17.00
2019-03-19T06:54:34.462Z,20.60
2019-03-19T06:55:34.532Z,19.20
2019-03-19T06:56:34.499Z,16.80
2019-03-19T06:57:39.112Z,19.20
2019-03-19T06:58:34.496Z,21.20
2019-03-19T06:59:34.624Z,20.30
2019-03-19T07:00:34.630Z,22.70
2019-03-19T07:01:34.535Z,17.80
2019-03-19T07:02:34.544Z,20.20
2019-03-19T07:03:34.559Z,19.90
2019-03-19T07:04:34.575Z,23.40
2019-03-19T07:05:34.865Z,23.30
2019-03-19T07:06:34.598Z,25.90
2019-03-19T07:07:34.616Z,22.10
2019-03-19T07:08:34.598Z,20.10
2019-03-19T07:09:34.819Z,23.30
2019-03-19T07:10:34.614Z,19.30
2019-03-19T07:11:34.630Z,15.30
2019-03-19T07:12:34.660Z,23.20
2019-03-19T07:13:34.767Z,22.10
2019-03-19T07:14:34.665Z,22.80
2019-03-19T07:15:34.882Z,29.50
2019-03-19T07:16:34.670Z,25.50
2019-03-19T07:17:34.679Z,18.20
2019-03-19T07:18:34.693Z,23.90
2019-03-19T07:20:34.713Z,22.30
2019-03-19T07:21:34.726Z,21.70
2019-03-19T07:22:34.740Z,17.00
2019-03-19T07:23:34.751Z,19.80
2019-03-19T07:24:34.757Z,24.10
2019-03-19T07:25:34.762Z,22.90
2019-03-19T07:26:34.785Z,19.60
2019-03-19T07:27:34.787Z,27.20
2019-03-19T07:28:34.864Z,19.80
2019-03-19T07:29:34.802Z,20.60
2019-03-19T07:30:34.840Z,19.60
2019-03-19T07:31:34.820Z,14.90
2019-03-19T07:32:35.056Z,19.90
2019-03-19T07:33:34.836Z,26.00
2019-03-19T07:34:35.062Z,18.70
2019-03-19T07:35:34.861Z,26.60
2019-03-19T07:36:34.878Z,19.10
2019-03-19T07:37:34.875Z,17.70
2019-03-19T07:38:34.889Z,19.10
2019-03-19T07:39:34.905Z,16.10
2019-03-19T07:40:35.388Z,17.40
2019-03-19T07:41:34.918Z,21.20
2019-03-19T07:42:34.930Z,19.90
2019-03-19T07:43:34.950Z,20.90
2019-03-19T07:44:34.952Z,19.40
2019-03-19T07:45:34.983Z,14.70
2019-03-19T07:46:35.069Z,18.00
2019-03-19T07:47:34.983Z,16.30
2019-03-19T07:48:34.990Z,20.90
2019-03-19T07:49:35.001Z,17.50
2019-03-19T07:50:35.026Z,17.70
2019-03-19T07:51:35.210Z,18.60
2019-03-19T07:52:35.030Z,21.10
2019-03-19T07:53:35.043Z,20.60
2019-03-19T07:54:35.058Z,18.60
2019-03-19T07:55:35.176Z,19.40
2019-03-19T07:56:35.172Z,13.70
2019-03-19T07:57:37.426Z,23.00
2019-03-19T07:58:44.721Z,22.80
2019-03-19T07:59:35.131Z,23.10
2019-03-19T08:00:35.360Z,16.90
2019-03-19T08:01:35.186Z,19.20
2019-03-19T08:02:35.147Z,17.60
2019-03-19T08:03:35.151Z,22.40
2019-03-19T08:04:35.153Z,19.30
2019-03-19T08:05:35.172Z,17.00
2019-03-19T08:06:35.175Z,19.40
2019-03-19T08:07:35.207Z,16.10
2019-03-19T08:08:35.205Z,15.00
2019-03-19T08:09:35.280Z,20.30
2019-03-19T08:10:35.222Z,17.90
2019-03-19T08:11:35.234Z,18.40
2019-03-19T08:12:35.241Z,18.10
2019-03-19T08:13:35.866Z,20.90
2019-03-19T08:14:35.483Z,17.70
2019-03-19T08:15:37.049Z,15.10
2019-03-19T08:16:37.983Z,20.80
2019-03-19T08:17:37.893Z,16.50
2019-03-19T08:18:36.281Z,16.30
2019-03-19T08:19:35.326Z,20.90
2019-03-19T08:20:35.382Z,14.10
2019-03-19T08:21:35.463Z,13.50
2019-03-19T08:22:35.361Z,21.90
2019-03-19T08:23:35.458Z,18.80
2019-03-19T08:24:35.374Z,17.90
2019-03-19T08:25:35.377Z,16.10
2019-03-19T08:26:35.393Z,17.70
2019-03-19T08:27:35.402Z,17.30
2019-03-19T08:28:35.414Z,16.70
2019-03-19T08:29:35.424Z,15.30
2019-03-19T08:30:35.434Z,19.30
2019-03-19T08:31:35.446Z,20.90
2019-03-19T08:32:35.457Z,18.00
2019-03-19T08:33:35.472Z,16.20
2019-03-19T08:34:36.400Z,18.40
2019-03-19T08:35:35.518Z,15.70
2019-03-19T08:36:35.502Z,16.90
2019-03-19T08:37:35.658Z,18.40
2019-03-19T08:38:35.552Z,16.50
2019-03-19T08:39:36.613Z,15.10
2019-03-19T08:40:36.585Z,17.50
2019-03-19T08:41:35.987Z,18.80
2019-03-19T08:42:35.568Z,18.70
2019-03-19T08:43:35.733Z,14.40
2019-03-19T08:44:35.602Z,17.30
2019-03-19T08:45:35.624Z,18.60
2019-03-19T08:46:35.633Z,19.10
2019-03-19T08:47:35.631Z,15.20
2019-03-19T08:48:37.399Z,18.00
2019-03-19T08:49:35.648Z,16.50
2019-03-19T08:50:35.677Z,14.90
2019-03-19T08:51:35.685Z,19.00
2019-03-19T08:52:35.987Z,18.50
2019-03-19T08:53:35.692Z,21.80
2019-03-19T08:54:35.718Z,18.60
2019-03-19T08:55:36.014Z,17.70
2019-03-19T08:56:38.311Z,21.00
2019-03-19T08:57:35.752Z,12.00
2019-03-19T08:58:36.032Z,15.50
2019-03-19T08:59:35.775Z,18.10
2019-03-19T09:01:35.855Z,14.90
2019-03-19T09:02:35.815Z,14.10
2019-03-19T09:03:36.869Z,16.80
2019-03-19T09:04:35.814Z,18.40
2019-03-19T09:05:35.836Z,16.50
2019-03-19T09:06:36.048Z,17.00
2019-03-19T09:07:36.053Z,16.30
2019-03-19T09:09:35.888Z,16.40
2019-03-19T09:10:35.907Z,15.60
2019-03-19T09:12:36.109Z,16.90
2019-03-19T09:13:36.136Z,12.00
2019-03-19T09:14:35.961Z,11.80
2019-03-19T09:16:35.986Z,14.10
2019-03-19T09:17:36.226Z,16.10
2019-03-19T09:18:36.397Z,16.60
2019-03-19T09:19:35.994Z,13.00
2019-03-19T09:20:36.222Z,14.80
2019-03-19T09:21:36.264Z,16.00
2019-03-19T09:22:36.037Z,13.60
2019-03-19T09:23:36.036Z,13.10
2019-03-19T09:24:36.151Z,13.50
2019-03-19T09:25:36.078Z,13.50
2019-03-19T09:26:36.082Z,11.50
2019-03-19T09:27:36.103Z,12.90
2019-03-19T09:28:36.095Z,11.40
2019-03-19T09:29:36.114Z,14.60
2019-03-19T09:30:36.150Z,13.20
2019-03-19T09:31:36.132Z,14.90
2019-03-19T09:32:36.148Z,12.90
2019-03-19T09:33:36.164Z,11.10
2019-03-19T09:34:36.171Z,13.00
2019-03-19T09:35:36.187Z,14.80
2019-03-19T09:36:36.195Z,18.20
2019-03-19T09:37:36.199Z,14.90
2019-03-19T09:38:36.218Z,11.00
2019-03-19T09:39:36.233Z,13.20
2019-03-19T09:40:36.250Z,14.60
2019-03-19T09:41:36.262Z,15.00
2019-03-19T09:42:36.438Z,13.00
2019-03-19T09:43:36.278Z,10.80
2019-03-19T09:44:36.287Z,12.20
2019-03-19T09:45:36.317Z,13.30
2019-03-19T09:46:36.323Z,14.00
2019-03-19T09:47:38.498Z,12.10
2019-03-19T09:48:36.385Z,12.60
2019-03-19T09:49:36.345Z,12.00
2019-03-19T09:50:36.432Z,11.00
2019-03-19T09:51:36.427Z,13.20
2019-03-19T09:52:36.387Z,10.10
2019-03-19T09:53:36.397Z,10.20
2019-03-19T09:54:36.440Z,11.30
2019-03-19T09:55:36.415Z,12.50
2019-03-19T09:56:36.439Z,13.20
2019-03-19T09:57:36.499Z,14.40
2019-03-19T09:58:36.458Z,17.10
2019-03-19T09:59:36.465Z,16.50
2019-03-19T10:00:36.480Z,11.70
2019-03-19T10:01:36.489Z,13.60
2019-03-19T10:02:36.497Z,14.80
2019-03-19T10:04:36.526Z,7.40
2019-03-19T10:05:36.531Z,13.00
2019-03-19T10:06:36.546Z,10.80
2019-03-19T10:07:36.556Z,9.30
2019-03-19T10:08:36.879Z,8.10
2019-03-19T10:09:36.584Z,12.40
2019-03-19T10:10:36.673Z,10.60
2019-03-19T10:12:36.648Z,10.90
2019-03-19T10:13:40.558Z,8.50
2019-03-19T10:14:37.089Z,11.60
2019-03-19T10:15:36.869Z,10.30
2019-03-19T10:16:36.676Z,11.10
2019-03-19T10:17:38.127Z,8.40
2019-03-19T10:18:36.690Z,8.20
2019-03-19T10:19:37.036Z,9.40
2019-03-19T10:20:36.734Z,10.10
2019-03-19T10:21:36.737Z,8.80
2019-03-19T10:22:36.739Z,6.90
2019-03-19T10:23:36.888Z,10.60
2019-03-19T10:24:37.381Z,10.60
2019-03-19T10:25:38.118Z,9.80
2019-03-19T10:26:36.798Z,10.40
2019-03-19T10:27:36.848Z,9.00
2019-03-19T10:28:36.841Z,6.00
2019-03-19T10:29:38.473Z,6.60
2019-03-19T10:30:36.851Z,8.70
2019-03-19T10:31:37.057Z,10.30
2019-03-19T10:32:38.237Z,7.80
2019-03-19T10:33:36.881Z,7.20
2019-03-19T10:34:36.920Z,8.20
2019-03-19T10:35:37.211Z,7.90
2019-03-19T10:36:36.929Z,7.60
2019-03-19T10:37:36.928Z,8.10
2019-03-19T10:38:36.941Z,5.30
2019-03-19T10:39:36.958Z,9.10
2019-03-19T10:40:36.972Z,9.50
2019-03-19T10:41:36.980Z,9.20
2019-03-19T10:42:37.153Z,9.70
2019-03-19T10:43:37.007Z,8.90
2019-03-19T10:44:37.041Z,7.40
2019-03-19T10:45:37.034Z,8.70
2019-03-19T10:46:37.069Z,7.20
2019-03-19T10:47:37.108Z,8.70
2019-03-19T10:48:37.070Z,13.10
2019-03-19T10:49:37.289Z,9.70
2019-03-19T10:50:37.103Z,6.10
2019-03-19T10:51:37.943Z,11.50
2019-03-19T10:52:38.432Z,8.20
2019-03-19T10:53:39.354Z,7.70
2019-03-19T10:54:39.243Z,8.60
2019-03-19T10:55:38.970Z,8.40
2019-03-19T10:56:38.883Z,11.80
2019-03-19T10:57:38.264Z,11.10
2019-03-19T10:58:38.192Z,8.40
2019-03-19T10:59:37.211Z,7.10
2019-03-19T11:00:37.297Z,7.90
2019-03-19T11:01:37.246Z,9.40
2019-03-19T11:02:37.391Z,8.80
2019-03-19T11:03:37.266Z,8.50
2019-03-19T11:04:37.299Z,9.20
2019-03-19T11:05:37.302Z,9.40
2019-03-19T11:06:38.083Z,9.90
2019-03-19T11:07:37.344Z,7.50
2019-03-19T11:08:37.332Z,9.80
2019-03-19T11:09:37.413Z,6.10
2019-03-19T11:10:37.359Z,9.00
2019-03-19T11:11:37.370Z,7.60
2019-03-19T11:12:37.470Z,7.90
2019-03-19T11:13:37.404Z,8.00
2019-03-19T11:14:37.449Z,6.80
2019-03-19T11:15:37.439Z,8.50
2019-03-19T11:16:37.470Z,8.10
2019-03-19T11:17:37.442Z,6.90
2019-03-19T11:18:37.473Z,12.00
2019-03-19T11:19:37.481Z,8.00
2019-03-19T11:20:37.484Z,8.40
2019-03-19T11:21:37.505Z,7.90
2019-03-19T11:22:37.504Z,9.50
2019-03-19T11:23:37.530Z,6.70
2019-03-19T11:24:37.983Z,8.30
2019-03-19T11:25:37.754Z,10.60
2019-03-19T11:26:37.781Z,9.50
2019-03-19T11:27:37.607Z,9.30
2019-03-19T11:28:37.604Z,7.40
2019-03-19T11:30:37.617Z,6.60
2019-03-19T11:31:37.956Z,6.80
2019-03-19T11:32:37.841Z,7.50
2019-03-19T11:34:37.883Z,8.50
2019-03-19T11:35:37.920Z,6.40
2019-03-19T11:36:38.946Z,7.20
2019-03-19T11:37:38.748Z,6.20
2019-03-19T11:39:37.734Z,7.90
2019-03-19T11:40:37.774Z,7.70
2019-03-19T11:41:37.965Z,7.20
2019-03-19T11:42:38.551Z,7.10
2019-03-19T11:43:38.059Z,8.30
2019-03-19T11:44:38.228Z,7.30
2019-03-19T11:45:37.838Z,6.60
2019-03-19T11:46:37.854Z,8.20
2019-03-19T11:47:37.893Z,6.20
2019-03-19T11:48:38.277Z,9.80
2019-03-19T11:49:37.941Z,7.80
2019-03-19T11:50:37.900Z,9.60
2019-03-19T11:51:37.890Z,9.00
2019-03-19T11:52:40.158Z,7.40
2019-03-19T11:53:38.030Z,11.40
2019-03-19T11:54:37.944Z,8.00
2019-03-19T11:55:37.985Z,9.20
2019-03-19T11:56:38.159Z,8.50
2019-03-19T11:57:38.954Z,8.20
2019-03-19T11:58:37.975Z,6.90
2019-03-19T11:59:38.009Z,6.10
2019-03-19T12:00:38.226Z,5.70
2019-03-19T12:02:38.041Z,8.30
2019-03-19T12:03:38.046Z,7.90
2019-03-19T12:04:38.056Z,7.90
2019-03-19T12:05:38.069Z,6.50
2019-03-19T12:06:38.098Z,7.00
2019-03-19T12:07:38.118Z,7.60
2019-03-19T12:08:38.119Z,7.90
2019-03-19T12:10:38.215Z,7.00
2019-03-19T12:11:38.140Z,8.40
2019-03-19T12:12:38.184Z,9.10
2019-03-19T12:13:38.208Z,6.20
2019-03-19T12:14:38.194Z,6.70
2019-03-19T12:15:38.195Z,6.10
2019-03-19T12:16:38.302Z,6.70
2019-03-19T12:17:38.863Z,5.90
2019-03-19T12:18:39.225Z,7.30
2019-03-19T12:19:38.905Z,7.40
2019-03-19T12:21:38.510Z,6.80
2019-03-19T12:23:38.513Z,6.70
2019-03-19T12:24:38.452Z,6.10
2019-03-19T12:25:38.613Z,7.60
2019-03-19T12:26:39.091Z,5.20
2019-03-19T12:27:38.485Z,7.00
2019-03-19T12:30:38.426Z,8.80
2019-03-19T12:33:41.294Z,6.30
2019-03-19T12:35:38.494Z,11.10
2019-03-19T12:38:38.823Z,6.10
2019-03-19T12:41:38.573Z,10.00
2019-03-19T12:45:38.869Z,7.40
2019-03-19T12:52:38.909Z,6.20
2019-03-19T12:55:39.874Z,8.60
2019-03-19T12:57:39.193Z,7.00
2019-03-19T12:58:40.045Z,7.60
2019-03-19T13:04:38.867Z,6.50
2019-03-19T13:06:38.896Z,8.20
2019-03-19T13:12:39.671Z,8.20
2019-03-19T13:13:40.970Z,5.50
2019-03-19T13:21:39.103Z,4.70
2019-03-19T13:25:39.653Z,8.10
2019-03-19T13:27:39.597Z,8.80
2019-03-19T13:31:39.517Z,8.30
2019-03-19T13:33:40.308Z,8.20
2019-03-19T13:49:40.155Z,7.60
2019-03-19T13:51:39.828Z,8.10
2019-03-19T13:53:39.715Z,7.50
2019-03-19T13:55:39.925Z,6.20
2019-03-19T13:58:40.508Z,8.70
2019-03-19T13:59:39.618Z,8.80
2019-03-19T14:00:39.637Z,8.20
2019-03-19T14:01:39.640Z,8.00
2019-03-19T14:03:39.712Z,7.10
2019-03-19T14:04:39.680Z,6.40
2019-03-19T14:05:39.693Z,6.30
2019-03-19T14:06:39.718Z,6.70
2019-03-19T14:08:39.823Z,7.60
2019-03-19T14:09:39.759Z,5.80
2019-03-19T14:10:39.789Z,8.20
2019-03-19T14:11:39.813Z,6.80
2019-03-19T14:12:39.804Z,6.30
2019-03-19T14:13:39.836Z,8.40
2019-03-19T14:14:39.837Z,5.80
2019-03-19T14:15:39.855Z,6.50
2019-03-19T14:16:39.870Z,7.80
2019-03-19T14:17:39.866Z,9.80
2019-03-19T14:18:39.889Z,6.10
2019-03-19T14:19:40.442Z,8.40
2019-03-19T14:20:40.243Z,8.10
2019-03-19T14:21:39.930Z,5.60
2019-03-19T14:22:40.678Z,8.60
2019-03-19T14:24:40.023Z,7.00
2019-03-19T14:25:39.997Z,5.60
2019-03-19T14:26:40.114Z,7.30
2019-03-19T14:27:40.125Z,6.60
2019-03-19T14:28:40.057Z,7.30
2019-03-19T14:29:40.244Z,8.60
2019-03-19T14:30:40.312Z,10.40
2019-03-19T14:31:40.089Z,7.80
2019-03-19T14:32:40.113Z,8.40
2019-03-19T14:34:40.110Z,8.00
2019-03-19T14:35:40.222Z,6.10
2019-03-19T14:36:40.463Z,8.50
2019-03-19T14:37:40.163Z,8.40
2019-03-19T14:38:47.087Z,7.50
2019-03-19T14:39:40.275Z,8.00
2019-03-19T14:40:40.211Z,9.50
2019-03-19T14:41:40.242Z,5.80
2019-03-19T14:42:40.243Z,7.60
2019-03-19T14:43:40.300Z,7.50
2019-03-19T14:44:40.264Z,8.60
2019-03-19T14:45:40.282Z,8.10
2019-03-19T14:46:40.345Z,7.50
2019-03-19T14:47:40.407Z,7.10
2019-03-19T14:48:40.345Z,6.50
2019-03-19T14:49:46.576Z,6.80
2019-03-19T14:50:40.379Z,7.20
2019-03-19T14:51:40.378Z,9.20
2019-03-19T14:52:40.405Z,9.10
2019-03-19T14:53:40.391Z,8.10
2019-03-19T14:54:40.422Z,11.60
2019-03-19T14:55:40.446Z,7.50
2019-03-19T14:56:40.449Z,8.10
2019-03-19T14:57:40.452Z,7.40
2019-03-19T14:58:40.611Z,9.40
2019-03-19T14:59:40.485Z,7.60
2019-03-19T15:00:40.498Z,6.40
2019-03-19T15:01:40.519Z,8.00
2019-03-19T15:02:40.524Z,7.00
2019-03-19T15:03:40.533Z,9.70
2019-03-19T15:04:40.562Z,7.10
2019-03-19T15:05:40.571Z,8.00
2019-03-19T15:06:40.587Z,6.10
2019-03-19T15:07:40.664Z,7.00
2019-03-19T15:08:40.629Z,8.10
2019-03-19T15:09:40.641Z,6.00
2019-03-19T15:10:40.655Z,7.90
2019-03-19T15:11:40.867Z,8.30
2019-03-19T15:13:40.694Z,8.10
2019-03-19T15:16:41.163Z,9.10
2019-03-19T15:17:40.786Z,6.00
2019-03-19T15:18:40.781Z,8.50
2019-03-19T15:19:40.769Z,7.60
2019-03-19T15:20:41.573Z,8.50
2019-03-19T15:22:41.569Z,8.40
2019-03-19T15:23:40.882Z,6.90
2019-03-19T15:27:40.894Z,9.40
2019-03-19T15:29:40.911Z,5.90
2019-03-19T15:30:40.920Z,6.50
2019-03-19T15:31:40.934Z,6.60
2019-03-19T15:32:40.997Z,7.00
2019-03-19T15:33:41.342Z,7.20
2019-03-19T15:34:41.010Z,7.80
2019-03-19T15:35:40.996Z,7.00
2019-03-19T15:36:41.043Z,7.40
2019-03-19T15:37:41.012Z,7.70
2019-03-19T15:38:41.483Z,7.40
2019-03-19T15:39:41.063Z,6.60
2019-03-19T15:40:41.098Z,9.60
2019-03-19T15:41:41.075Z,7.90
2019-03-19T15:42:41.098Z,10.40
2019-03-19T15:43:41.100Z,6.40
2019-03-19T15:44:41.131Z,7.30
2019-03-19T15:47:41.175Z,10.20
2019-03-19T15:49:41.219Z,8.40
2019-03-19T15:50:41.216Z,6.50
2019-03-19T15:52:41.934Z,6.90
2019-03-19T15:53:41.310Z,8.80
2019-03-19T15:55:41.458Z,9.00
2019-03-19T15:59:41.533Z,7.40
2019-03-19T16:00:41.347Z,6.70
2019-03-19T16:01:41.340Z,7.40
2019-03-19T16:02:41.564Z,5.70
2019-03-19T16:03:41.390Z,7.10
2019-03-19T16:04:41.405Z,6.30
2019-03-19T16:05:41.397Z,5.70
2019-03-19T16:06:41.408Z,10.70
2019-03-19T16:07:41.441Z,8.00
2019-03-19T16:09:41.954Z,8.50
2019-03-19T16:10:41.775Z,9.30
2019-03-19T16:11:41.585Z,8.10
2019-03-19T16:12:43.589Z,7.80
2019-03-19T16:13:41.502Z,8.40
2019-03-19T16:15:41.733Z,6.60
2019-03-19T16:16:41.556Z,9.70
2019-03-19T16:17:42.175Z,6.70
2019-03-19T16:18:41.566Z,8.00
2019-03-19T16:19:41.608Z,7.40
2019-03-19T16:20:41.821Z,8.10
2019-03-19T16:21:41.626Z,7.20
2019-03-19T16:22:41.835Z,8.70
2019-03-19T16:23:42.144Z,8.30
2019-03-19T16:24:41.943Z,9.90
2019-03-19T16:25:41.668Z,9.50
2019-03-19T16:26:41.677Z,6.40
2019-03-19T16:27:41.701Z,8.70
2019-03-19T16:28:41.724Z,6.80
2019-03-19T16:34:42.698Z,8.50
2019-03-19T16:36:42.711Z,7.40
2019-03-19T16:38:42.061Z,9.20